Time;durP1;ratioP1;P1;durP2;ratioP2;P2;SDS_P1;SDS_P2;PMS_P1;PMS_P2;Temp;Humidity;BMP_temperature;BMP_pressure;BME280_temperature;BME280_humidity;BME280_pressure;Samples;Min_cycle;Max_cycle;Signal;HPM_P1;HPM_P2
2023/11/12 00:02:13;;;;;;;1.92;1.55;;;;;;;;;;10496628;28;20036;-69
2023/11/12 00:07:14;;;;;;;5.75;1.95;;;;;;;;;;10497130;28;20028;-69
2023/11/12 00:12:14;;;;;;;2.00;1.60;;;;;;;;;;10496668;28;20303;-69
2023/11/12 00:17:15;;;;;;;1.37;1.17;;;;;;;;;;10496735;28;20251;-69
2023/11/12 00:22:16;;;;;;;4.38;1.38;;;;;;;;;;10495902;28;20096;-69
2023/11/12 00:27:18;;;;;;;1.95;1.50;;;;;;;;;;10496292;28;20035;-69
2023/11/12 00:32:18;;;;;;;2.25;1.48;;;;;;;;;;10494721;28;20040;-69
2023/11/12 00:37:18;;;;;;;1.98;1.30;;;;;;;;;;10496640;28;20364;-69
2023/11/12 00:42:19;;;;;;;1.73;1.48;;;;;;;;;;10495789;28;20056;-69
2023/11/12 00:47:19;;;;;;;5.10;1.40;;;;;;;;;;10495804;28;20526;-68
2023/11/12 00:52:19;;;;;;;4.18;1.90;;;;;;;;;;10496119;28;20307;-69
2023/11/12 00:57:20;;;;;;;2.88;2.05;;;;;;;;;;10502030;28;20040;-69
2023/11/12 01:02:20;;;;;;;2.80;1.50;;;;;;;;;;10502114;28;20107;-69
2023/11/12 01:07:20;;;;;;;1.88;1.60;;;;;;;;;;10503211;28;20254;-68
2023/11/12 01:12:21;;;;;;;5.47;2.13;;;;;;;;;;10502903;28;20307;-69
2023/11/12 01:17:21;;;;;;;5.38;2.17;;;;;;;;;;10502796;28;20040;-68
2023/11/12 01:22:22;;;;;;;4.72;2.35;;;;;;;;;;10502223;28;20273;-68
2023/11/12 01:27:22;;;;;;;3.77;2.23;;;;;;;;;;10502416;28;20047;-69
2023/11/12 01:32:22;;;;;;;4.10;2.50;;;;;;;;;;10502124;28;20045;-70
2023/11/12 01:37:23;;;;;;;4.15;2.22;;;;;;;;;;10501901;28;20040;-68
2023/11/12 01:42:25;;;;;;;4.25;2.42;;;;;;;;;;10501454;28;20083;-69
2023/11/12 01:47:25;;;;;;;4.68;2.60;;;;;;;;;;10505875;28;20359;-68
2023/11/12 01:52:25;;;;;;;3.90;2.08;;;;;;;;;;10501056;28;20117;-69
2023/11/12 01:57:26;;;;;;;4.82;2.60;;;;;;;;;;10501140;28;20215;-69
2023/11/12 02:02:32;;;;;;;3.60;2.30;;;;;;;;;;10482935;28;20040;-69
2023/11/12 02:07:42;;;;;;;3.38;2.10;;;;;;;;;;10480925;28;20273;-69
2023/11/12 02:12:45;;;;;;;2.78;2.10;;;;;;;;;;10500773;28;20040;-69
2023/11/12 02:17:46;;;;;;;4.07;2.45;;;;;;;;;;10500366;28;20274;-69
2023/11/12 02:22:46;;;;;;;3.40;2.13;;;;;;;;;;10500692;28;20032;-69
2023/11/12 02:27:46;;;;;;;3.47;2.05;;;;;;;;;;10499642;28;20532;-69
2023/11/12 02:32:47;;;;;;;3.67;2.10;;;;;;;;;;10498542;28;20048;-69
2023/11/12 02:37:47;;;;;;;5.72;2.65;;;;;;;;;;10500093;28;20115;-68
2023/11/12 02:42:48;;;;;;;3.90;2.60;;;;;;;;;;10499462;28;20037;-68
2023/11/12 02:47:48;;;;;;;3.42;2.50;;;;;;;;;;10499560;28;20032;-68
2023/11/12 02:52:49;;;;;;;4.07;2.40;;;;;;;;;;10499613;28;20039;-70
2023/11/12 02:57:49;;;;;;;3.20;2.47;;;;;;;;;;10471157;28;20616;-68
2023/11/12 03:02:49;;;;;;;4.00;2.42;;;;;;;;;;10480606;28;20056;-68
2023/11/12 03:07:50;;;;;;;4.37;2.37;;;;;;;;;;10499048;28;20421;-69
2023/11/12 03:12:50;;;;;;;4.45;2.40;;;;;;;;;;10499028;28;20127;-68
2023/11/12 03:17:51;;;;;;;4.73;2.73;;;;;;;;;;10487461;28;20040;-70
2023/11/12 03:22:51;;;;;;;8.02;2.78;;;;;;;;;;10478482;28;20032;-69
2023/11/12 03:27:51;;;;;;;4.40;2.40;;;;;;;;;;10497027;28;20086;-67
2023/11/12 03:32:51;;;;;;;2.97;1.85;;;;;;;;;;10496536;28;20360;-68
2023/11/12 03:37:52;;;;;;;3.45;1.98;;;;;;;;;;10495499;28;20250;-67
2023/11/12 03:42:52;;;;;;;3.92;2.47;;;;;;;;;;10494541;28;20056;-68
2023/11/12 03:47:52;;;;;;;4.90;2.10;;;;;;;;;;10494737;28;20037;-68
2023/11/12 03:52:52;;;;;;;4.43;2.10;;;;;;;;;;10496558;28;20096;-68
2023/11/12 03:57:53;;;;;;;3.80;2.10;;;;;;;;;;10497129;28;20063;-67
2023/11/12 04:02:53;;;;;;;6.93;2.60;;;;;;;;;;10498010;28;20028;-68
2023/11/12 04:07:53;;;;;;;2.10;1.88;;;;;;;;;;10478820;28;20035;-68
2023/11/12 04:12:53;;;;;;;4.33;2.23;;;;;;;;;;10496805;28;20315;-69
2023/11/12 04:17:54;;;;;;;4.82;2.95;;;;;;;;;;10496047;28;20028;-70
2023/11/12 04:22:55;;;;;;;3.97;2.53;;;;;;;;;;10496038;28;20017;-70
2023/11/12 04:27:55;;;;;;;2.75;2.13;;;;;;;;;;10496544;28;20261;-70
2023/11/12 04:32:55;;;;;;;5.32;2.15;;;;;;;;;;10503807;28;20238;-70
2023/11/12 04:37:55;;;;;;;6.32;2.67;;;;;;;;;;10503627;28;20039;-68
2023/11/12 04:42:56;;;;;;;3.88;2.70;;;;;;;;;;10503860;28;20293;-70
2023/11/12 04:47:56;;;;;;;4.15;2.70;;;;;;;;;;10504598;28;20043;-71
2023/11/12 04:52:56;;;;;;;6.75;3.30;;;;;;;;;;10503836;28;20040;-70
2023/11/12 04:57:56;;;;;;;4.95;2.90;;;;;;;;;;10503946;28;20305;-70
2023/11/12 05:02:57;;;;;;;9.30;2.70;;;;;;;;;;10503400;28;20032;-70
2023/11/12 05:07:57;;;;;;;6.53;3.03;;;;;;;;;;10503015;28;20017;-70
2023/11/12 05:12:57;;;;;;;4.45;3.10;;;;;;;;;;10503044;28;20039;-70
2023/11/12 05:18:03;;;;;;;5.53;3.03;;;;;;;;;;10503046;28;20323;-69
2023/11/12 05:23:04;;;;;;;6.38;2.65;;;;;;;;;;10502671;28;20047;-70
2023/11/12 05:28:05;;;;;;;3.55;2.55;;;;;;;;;;10484742;28;20031;-69
2023/11/12 05:33:05;;;;;;;4.85;3.10;;;;;;;;;;10504159;28;20033;-69
2023/11/12 05:38:06;;;;;;;6.25;3.40;;;;;;;;;;10502543;28;20043;-70
2023/11/12 05:43:06;;;;;;;7.63;3.10;;;;;;;;;;10501265;28;20358;-70
2023/11/12 05:48:09;;;;;;;5.57;2.92;;;;;;;;;;10502040;28;20028;-70
2023/11/12 05:53:10;;;;;;;21.08;7.95;;;;;;;;;;10501680;28;20040;-70
2023/11/12 05:58:10;;;;;;;10.98;4.53;;;;;;;;;;10501449;28;20246;-69
2023/11/12 06:03:10;;;;;;;10.38;4.57;;;;;;;;;;10501126;28;20031;-69
2023/11/12 06:08:11;;;;;;;10.32;4.88;;;;;;;;;;10501212;28;20211;-70
2023/11/12 06:13:11;;;;;;;9.85;4.30;;;;;;;;;;10500664;28;20234;-70
2023/11/12 06:18:11;;;;;;;7.55;4.25;;;;;;;;;;10500647;28;20024;-70
2023/11/12 06:23:11;;;;;;;7.30;3.80;;;;;;;;;;10502192;28;20327;-69
2023/11/12 06:28:12;;;;;;;15.25;4.72;;;;;;;;;;10501619;28;20024;-69
2023/11/12 06:33:12;;;;;;;11.93;4.65;;;;;;;;;;10497091;28;20041;-69
2023/11/12 06:38:12;;;;;;;7.25;3.75;;;;;;;;;;10500152;28;20039;-69
2023/11/12 06:43:13;;;;;;;7.93;4.53;;;;;;;;;;10501308;28;20482;-69
2023/11/12 06:48:13;;;;;;;5.25;3.33;;;;;;;;;;10500500;28;20051;-79
2023/11/12 06:53:13;;;;;;;4.97;3.57;;;;;;;;;;10497251;28;20020;-71
2023/11/12 06:58:15;;;;;;;5.30;3.33;;;;;;;;;;10497910;28;20350;-72
2023/11/12 07:03:15;;;;;;;7.72;3.60;;;;;;;;;;10497733;28;20040;-75
2023/11/12 07:08:19;;;;;;;9.32;4.28;;;;;;;;;;10498727;28;20028;-72
2023/11/12 07:13:19;;;;;;;11.93;4.03;;;;;;;;;;10472839;28;20234;-71
2023/11/12 07:18:19;;;;;;;11.10;3.38;;;;;;;;;;10499717;28;20043;-72
2023/11/12 07:23:21;;;;;;;10.40;3.72;;;;;;;;;;10482229;28;20032;-71
2023/11/12 07:28:21;;;;;;;6.53;3.97;;;;;;;;;;10495174;28;20377;-71
2023/11/12 07:33:21;;;;;;;10.85;4.18;;;;;;;;;;10493822;28;20158;-71
2023/11/12 07:38:22;;;;;;;5.23;4.17;;;;;;;;;;10504015;28;20234;-70
2023/11/12 07:43:22;;;;;;;12.77;5.82;;;;;;;;;;10498027;28;20433;-70
2023/11/12 07:48:22;;;;;;;19.03;9.20;;;;;;;;;;10497591;28;20032;-71
2023/11/12 07:53:23;;;;;;;6.65;3.58;;;;;;;;;;10473375;28;20036;-74
2023/11/12 07:58:24;;;;;;;12.13;4.15;;;;;;;;;;10512972;28;20036;-74
2023/11/12 08:03:24;;;;;;;12.75;4.57;;;;;;;;;;10499960;28;20032;-71
2023/11/12 08:08:26;;;;;;;4.05;2.25;;;;;;;;;;10505513;28;20024;-72
2023/11/12 08:13:27;;;;;;;6.20;2.58;;;;;;;;;;10521758;28;20226;-72
2023/11/12 08:18:27;;;;;;;7.45;3.25;;;;;;;;;;10504978;28;20035;-73
2023/11/12 08:23:27;;;;;;;11.32;4.18;;;;;;;;;;10504434;28;20139;-74
2023/11/12 08:28:27;;;;;;;12.30;4.90;;;;;;;;;;10504968;28;20255;-75
2023/11/12 08:33:28;;;;;;;8.97;4.83;;;;;;;;;;10504409;28;20350;-74
2023/11/12 08:38:28;;;;;;;14.18;5.60;;;;;;;;;;10506928;28;20282;-71
2023/11/12 08:43:28;;;;;;;31.00;9.23;;;;;;;;;;10508320;28;20302;-71
2023/11/12 08:48:44;;;;;;;19.70;8.38;;;;;;;;;;10504565;28;20038;-70
2023/11/12 08:53:44;;;;;;;18.85;8.73;;;;;;;;;;10503570;28;20043;-77
2023/11/12 08:58:44;;;;;;;20.70;8.63;;;;;;;;;;10487760;28;20075;-72
2023/11/12 09:03:45;;;;;;;13.85;7.57;;;;;;;;;;10481932;28;20031;-75
2023/11/12 09:08:45;;;;;;;12.02;6.45;;;;;;;;;;10481064;28;20238;-73
2023/11/12 09:13:46;;;;;;;11.27;6.97;;;;;;;;;;10478084;28;20032;-77
2023/11/12 09:18:46;;;;;;;14.73;6.70;;;;;;;;;;10479266;28;20033;-76
2023/11/12 09:23:46;;;;;;;12.63;7.18;;;;;;;;;;10483053;28;20315;-74
2023/11/12 09:28:47;;;;;;;18.70;6.40;;;;;;;;;;10473886;28;20231;-75
2023/11/12 09:33:47;;;;;;;13.50;6.57;;;;;;;;;;10477243;28;20295;-75
2023/11/12 09:38:47;;;;;;;28.35;13.20;;;;;;;;;;10461854;28;20039;-74
2023/11/12 09:43:49;;;;;;;45.85;18.38;;;;;;;;;;10451142;28;20044;-74
2023/11/12 09:48:50;;;;;;;45.22;20.25;;;;;;;;;;10474940;28;20025;-74
2023/11/12 09:53:52;;;;;;;36.30;16.23;;;;;;;;;;10456489;28;20032;-75
2023/11/12 09:58:53;;;;;;;28.10;14.70;;;;;;;;;;10476590;28;20033;-75
2023/11/12 10:03:53;;;;;;;25.42;15.10;;;;;;;;;;10480347;28;20409;-75
2023/11/12 10:08:53;;;;;;;37.38;16.60;;;;;;;;;;10477703;28;20362;-75
2023/11/12 10:13:57;;;;;;;23.15;9.25;;;;;;;;;;10471107;28;20029;-75
2023/11/12 10:19:14;;;;;;;12.32;7.28;;;;;;;;;;10458034;28;20068;-75
2023/11/12 10:24:14;;;;;;;14.13;5.85;;;;;;;;;;10469706;28;20044;-75
2023/11/12 10:29:21;;;;;;;8.75;4.60;;;;;;;;;;10467195;28;20212;-75
2023/11/12 10:34:23;;;;;;;10.05;4.60;;;;;;;;;;10473866;28;20068;-75
2023/11/12 10:39:23;;;;;;;10.02;4.65;;;;;;;;;;10479641;28;20020;-75
2023/11/12 10:44:25;;;;;;;8.35;4.65;;;;;;;;;;10467695;28;20029;-75
2023/11/12 10:49:26;;;;;;;13.27;5.03;;;;;;;;;;10469786;28;20250;-75
2023/11/12 10:54:27;;;;;;;15.50;5.82;;;;;;;;;;10472131;28;20108;-76
2023/11/12 10:59:29;;;;;;;12.60;5.53;;;;;;;;;;10475297;28;20028;-75
2023/11/12 11:04:32;;;;;;;11.82;5.97;;;;;;;;;;10488189;28;20050;-75
2023/11/12 11:09:32;;;;;;;13.68;7.32;;;;;;;;;;10458601;28;20425;-75
2023/11/12 11:14:34;;;;;;;13.68;7.05;;;;;;;;;;10471951;28;20140;-75
2023/11/12 11:19:43;;;;;;;12.07;6.22;;;;;;;;;;10469717;28;20016;-75
2023/11/12 11:24:46;;;;;;;6.45;3.30;;;;;;;;;;10479050;28;20020;-75
2023/11/12 11:30:24;;;;;;;9.38;5.10;;;;;;;;;;10475303;28;20035;-75
2023/11/12 11:35:25;;;;;;;18.23;4.75;;;;;;;;;;10484276;28;20070;-77
2023/11/12 11:40:32;;;;;;;12.52;5.57;;;;;;;;;;10491566;28;20046;-69
2023/11/12 11:45:52;;;;;;;10.55;5.40;;;;;;;;;;10484326;28;20323;-68
2023/11/12 11:50:53;;;;;;;11.30;4.82;;;;;;;;;;10489621;28;20059;-75
2023/11/12 11:56:01;;;;;;;8.27;4.05;;;;;;;;;;10471576;28;20036;-70
2023/11/12 12:01:01;;;;;;;7.43;3.72;;;;;;;;;;10473411;28;20032;-69
2023/11/12 12:06:18;;;;;;;6.82;3.55;;;;;;;;;;10473928;28;20222;-69
2023/11/12 12:11:18;;;;;;;10.18;4.70;;;;;;;;;;10461754;28;20044;-70
2023/11/12 12:16:26;;;;;;;14.85;5.78;;;;;;;;;;10473692;28;20037;-69
2023/11/12 12:21:27;;;;;;;8.23;4.67;;;;;;;;;;10463856;28;20060;-70
2023/11/12 12:26:27;;;;;;;7.28;4.07;;;;;;;;;;10462234;28;20048;-69
2023/11/12 12:31:28;;;;;;;13.02;5.18;;;;;;;;;;10455556;28;20061;-70
2023/11/12 12:36:29;;;;;;;9.77;4.88;;;;;;;;;;10464130;28;20041;-71
2023/11/12 12:41:29;;;;;;;9.57;4.38;;;;;;;;;;10461135;28;20047;-71
2023/11/12 12:46:51;;;;;;;8.17;3.70;;;;;;;;;;10466224;28;20279;-69
2023/11/12 12:51:51;;;;;;;8.25;5.65;;;;;;;;;;10467589;28;20296;-69
2023/11/12 12:56:52;;;;;;;8.25;3.88;;;;;;;;;;10473677;28;20028;-70
2023/11/12 13:01:52;;;;;;;11.20;5.97;;;;;;;;;;10479319;28;20044;-70
2023/11/12 13:06:53;;;;;;;14.45;6.32;;;;;;;;;;10475525;28;20029;-69
2023/11/12 13:11:53;;;;;;;10.90;5.40;;;;;;;;;;10471066;28;20115;-70
2023/11/12 13:16:54;;;;;;;13.82;5.60;;;;;;;;;;10490249;28;20468;-69
2023/11/12 13:21:55;;;;;;;14.07;4.55;;;;;;;;;;10482382;28;20553;-70
2023/11/12 13:26:56;;;;;;;7.70;3.85;;;;;;;;;;10478406;28;20040;-69
2023/11/12 13:31:56;;;;;;;8.23;4.03;;;;;;;;;;10477666;28;20341;-69
2023/11/12 13:36:56;;;;;;;6.70;3.65;;;;;;;;;;10473999;28;20205;-70
2023/11/12 13:42:02;;;;;;;11.50;2.72;;;;;;;;;;10477350;28;20329;-70
2023/11/12 13:47:03;;;;;;;9.05;3.45;;;;;;;;;;10479437;28;20059;-69
2023/11/12 13:52:05;;;;;;;10.27;3.42;;;;;;;;;;10471222;28;20052;-70
2023/11/12 13:57:06;;;;;;;11.73;3.65;;;;;;;;;;10473017;28;20025;-69
2023/11/12 14:02:10;;;;;;;3.22;1.80;;;;;;;;;;10472465;28;20300;-70
2023/11/12 14:07:11;;;;;;;5.95;2.50;;;;;;;;;;10481787;28;20029;-71
2023/11/12 14:12:11;;;;;;;4.93;1.98;;;;;;;;;;10472154;28;20417;-70
2023/11/12 14:17:11;;;;;;;4.38;2.05;;;;;;;;;;10454229;28;20342;-70
2023/11/12 14:22:13;;;;;;;6.25;2.13;;;;;;;;;;10454803;28;20236;-70
2023/11/12 14:27:14;;;;;;;2.83;2.00;;;;;;;;;;10490777;28;20024;-71
2023/11/12 14:32:14;;;;;;;7.47;1.98;;;;;;;;;;10470272;28;20041;-70
2023/11/12 14:37:15;;;;;;;3.03;1.83;;;;;;;;;;10475938;28;20138;-70
2023/11/12 14:42:15;;;;;;;2.47;1.60;;;;;;;;;;10474006;28;20192;-70
2023/11/12 14:47:16;;;;;;;5.43;2.08;;;;;;;;;;10475628;28;20222;-70
2023/11/12 14:52:17;;;;;;;6.95;2.25;;;;;;;;;;10472823;28;20295;-70
2023/11/12 14:57:17;;;;;;;5.32;2.17;;;;;;;;;;10476814;28;20032;-69
2023/11/12 15:02:17;;;;;;;3.38;1.55;;;;;;;;;;10473937;28;20039;-70
2023/11/12 15:07:17;;;;;;;4.63;1.42;;;;;;;;;;10470915;28;20093;-69
2023/11/12 15:12:18;;;;;;;6.60;2.00;;;;;;;;;;10479103;28;20307;-70
2023/11/12 15:17:21;;;;;;;5.90;2.08;;;;;;;;;;10474004;28;20107;-71
2023/11/12 15:22:21;;;;;;;5.93;2.70;;;;;;;;;;10471312;28;20036;-71
2023/11/12 15:27:21;;;;;;;8.00;2.78;;;;;;;;;;10475169;28;20175;-71
2023/11/12 15:32:21;;;;;;;3.50;2.00;;;;;;;;;;10471837;28;20071;-70
2023/11/12 15:37:22;;;;;;;7.03;3.88;;;;;;;;;;10468662;28;20066;-70
2023/11/12 15:42:23;;;;;;;7.10;2.20;;;;;;;;;;10474387;28;20076;-69
2023/11/12 15:47:26;;;;;;;6.90;2.42;;;;;;;;;;10476289;28;20070;-69
2023/11/12 15:52:26;;;;;;;5.60;3.00;;;;;;;;;;10469741;28;20302;-70
2023/11/12 15:57:26;;;;;;;7.40;3.08;;;;;;;;;;10477964;28;20369;-70
2023/11/12 16:02:27;;;;;;;5.80;3.22;;;;;;;;;;10478567;28;20039;-71
2023/11/12 16:07:27;;;;;;;6.72;3.60;;;;;;;;;;10473038;28;20088;-71
2023/11/12 16:12:27;;;;;;;11.02;4.80;;;;;;;;;;10472722;28;20071;-70
2023/11/12 16:17:27;;;;;;;9.33;4.30;;;;;;;;;;10478320;28;20028;-70
2023/11/12 16:22:28;;;;;;;9.63;6.07;;;;;;;;;;10464527;28;20028;-70
2023/11/12 16:27:28;;;;;;;13.50;6.25;;;;;;;;;;10482806;28;20480;-70
2023/11/12 16:32:28;;;;;;;15.93;8.02;;;;;;;;;;10475830;28;20048;-70
2023/11/12 16:37:30;;;;;;;15.43;7.80;;;;;;;;;;10478760;28;20173;-70
2023/11/12 16:42:30;;;;;;;15.02;8.43;;;;;;;;;;10477356;28;20028;-69
2023/11/12 16:47:30;;;;;;;13.43;8.10;;;;;;;;;;10476708;28;20060;-69
2023/11/12 16:52:33;;;;;;;17.35;8.30;;;;;;;;;;10453023;28;20052;-69
2023/11/12 16:57:34;;;;;;;17.33;9.75;;;;;;;;;;10482117;28;20028;-70
2023/11/12 17:02:35;;;;;;;14.85;7.68;;;;;;;;;;10486268;28;20270;-69
2023/11/12 17:07:35;;;;;;;17.33;6.82;;;;;;;;;;10479595;28;20025;-69
2023/11/12 17:12:35;;;;;;;14.48;7.78;;;;;;;;;;10483508;28;20029;-70
2023/11/12 17:17:36;;;;;;;12.50;7.30;;;;;;;;;;10480862;28;20075;-75
2023/11/12 17:22:37;;;;;;;15.60;8.38;;;;;;;;;;10476804;28;20017;-74
2023/11/12 17:27:40;;;;;;;12.63;7.03;;;;;;;;;;10492137;28;20302;-70
2023/11/12 17:32:41;;;;;;;15.57;7.70;;;;;;;;;;10480652;28;20032;-74
2023/11/12 17:37:41;;;;;;;15.23;9.30;;;;;;;;;;10484778;28;20581;-74
2023/11/12 17:42:42;;;;;;;15.17;8.73;;;;;;;;;;10488335;28;20235;-74
2023/11/12 17:47:42;;;;;;;17.58;8.68;;;;;;;;;;10483606;28;20009;-74
2023/11/12 17:52:43;;;;;;;20.70;10.02;;;;;;;;;;10503050;28;20388;-74
2023/11/12 17:57:43;;;;;;;15.13;8.77;;;;;;;;;;10479356;28;20313;-77
2023/11/12 18:02:44;;;;;;;19.20;9.13;;;;;;;;;;10481255;28;20131;-78
2023/11/12 18:07:44;;;;;;;16.07;10.07;;;;;;;;;;10478247;28;20243;-74
2023/11/12 18:12:47;;;;;;;20.23;9.60;;;;;;;;;;10480427;28;20079;-74
2023/11/12 18:17:48;;;;;;;22.17;10.02;;;;;;;;;;10480731;28;20257;-74
2023/11/12 18:22:48;;;;;;;24.92;11.45;;;;;;;;;;10476877;28;20086;-75
2023/11/12 18:27:49;;;;;;;18.77;10.90;;;;;;;;;;10477899;28;20445;-73
2023/11/12 18:32:49;;;;;;;18.58;10.48;;;;;;;;;;10479423;28;20070;-71
2023/11/12 18:37:50;;;;;;;20.13;10.60;;;;;;;;;;10478241;28;20082;-77
2023/11/12 18:42:52;;;;;;;24.17;13.63;;;;;;;;;;10479044;28;20323;-78
2023/11/12 18:47:52;;;;;;;25.80;14.55;;;;;;;;;;10472870;28;20242;-76
2023/11/12 18:52:53;;;;;;;29.20;15.30;;;;;;;;;;10482536;28;20074;-79
2023/11/12 18:57:54;;;;;;;25.58;15.07;;;;;;;;;;10486887;28;20264;-84
2023/11/12 19:02:54;;;;;;;36.93;17.93;;;;;;;;;;10463404;28;20115;-74
2023/11/12 19:07:54;;;;;;;32.20;15.75;;;;;;;;;;10458158;28;20338;-74
2023/11/12 19:12:55;;;;;;;25.45;14.65;;;;;;;;;;10480306;28;20127;-74
2023/11/12 19:17:55;;;;;;;29.92;16.63;;;;;;;;;;10478936;28;20215;-72
2023/11/12 19:22:57;;;;;;;34.22;18.85;;;;;;;;;;10480712;28;20382;-72
2023/11/12 19:27:57;;;;;;;38.13;18.77;;;;;;;;;;10478469;28;20119;-74
2023/11/12 19:33:00;;;;;;;35.50;20.38;;;;;;;;;;10484648;28;20033;-76
2023/11/12 19:38:02;;;;;;;33.10;17.90;;;;;;;;;;10477158;28;20029;-85
2023/11/12 19:43:02;;;;;;;34.90;16.83;;;;;;;;;;10482657;28;20037;-86
2023/11/12 19:48:03;;;;;;;35.58;18.92;;;;;;;;;;10466444;28;20079;-86
2023/11/12 19:53:03;;;;;;;27.35;15.98;;;;;;;;;;10473827;28;20033;-84
2023/11/12 19:58:05;;;;;;;35.00;18.42;;;;;;;;;;10480163;28;20045;-80
2023/11/12 20:03:05;;;;;;;32.53;17.77;;;;;;;;;;10480050;28;20024;-81
2023/11/12 20:08:06;;;;;;;36.63;17.88;;;;;;;;;;10475016;28;20032;-81
2023/11/12 20:13:06;;;;;;;31.48;17.80;;;;;;;;;;10471821;28;20032;-80
2023/11/12 20:18:09;;;;;;;28.38;14.95;;;;;;;;;;10465180;28;20043;-80
2023/11/12 20:23:10;;;;;;;29.52;14.82;;;;;;;;;;10475004;28;20029;-80
2023/11/12 20:28:13;;;;;;;27.50;13.20;;;;;;;;;;10471389;28;20021;-80
2023/11/12 20:33:14;;;;;;;27.02;13.75;;;;;;;;;;10473601;28;20040;-81
2023/11/12 20:38:15;;;;;;;19.80;10.48;;;;;;;;;;10480734;28;20020;-80
2023/11/12 20:43:15;;;;;;;21.70;10.93;;;;;;;;;;10490518;28;20326;-80
2023/11/12 20:48:16;;;;;;;21.17;9.15;;;;;;;;;;10478768;28;20331;-79
2023/11/12 20:53:16;;;;;;;26.70;13.48;;;;;;;;;;10476034;28;20298;-80
2023/11/12 20:58:17;;;;;;;34.43;19.27;;;;;;;;;;10476934;28;20308;-80
2023/11/12 21:03:17;;;;;;;41.05;23.33;;;;;;;;;;10486308;28;20027;-79
2023/11/12 21:08:18;;;;;;;40.38;20.88;;;;;;;;;;10479529;28;20028;-80
2023/11/12 21:13:19;;;;;;;48.13;21.60;;;;;;;;;;10480508;28;20040;-80
2023/11/12 21:18:19;;;;;;;41.30;22.00;;;;;;;;;;10483227;28;20084;-79
2023/11/12 21:23:19;;;;;;;42.05;21.77;;;;;;;;;;10492851;28;20024;-80
2023/11/12 21:28:20;;;;;;;39.28;22.35;;;;;;;;;;10483832;28;20024;-79
2023/11/12 21:33:20;;;;;;;38.75;21.13;;;;;;;;;;10477718;28;20112;-82
2023/11/12 21:38:20;;;;;;;40.83;20.67;;;;;;;;;;10471355;28;20087;-80
2023/11/12 21:43:21;;;;;;;39.75;20.55;;;;;;;;;;10473487;28;20020;-80
2023/11/12 21:48:21;;;;;;;40.40;21.55;;;;;;;;;;10457053;28;20204;-80
2023/11/12 21:53:22;;;;;;;41.77;19.77;;;;;;;;;;10486917;28;20317;-80
2023/11/12 21:58:23;;;;;;;38.20;21.10;;;;;;;;;;10478898;28;20088;-79
2023/11/12 22:03:23;;;;;;;35.28;18.65;;;;;;;;;;10489974;28;20032;-78
2023/11/12 22:08:23;;;;;;;30.77;16.42;;;;;;;;;;10485685;28;20044;-79
2023/11/12 22:13:24;;;;;;;25.55;14.43;;;;;;;;;;10462851;28;20411;-80
2023/11/12 22:18:24;;;;;;;23.05;13.30;;;;;;;;;;10475799;28;20319;-81
2023/11/12 22:23:24;;;;;;;15.40;8.85;;;;;;;;;;10485019;28;20250;-78
2023/11/12 22:28:24;;;;;;;18.13;10.13;;;;;;;;;;10480434;28;20299;-80
2023/11/12 22:33:25;;;;;;;19.75;10.63;;;;;;;;;;10486502;28;20365;-78
2023/11/12 22:38:25;;;;;;;15.67;9.37;;;;;;;;;;10481268;28;20306;-77
2023/11/12 22:43:25;;;;;;;15.25;8.48;;;;;;;;;;10482123;28;20276;-77
2023/11/12 22:48:28;;;;;;;18.48;9.80;;;;;;;;;;10484170;28;20291;-77
2023/11/12 22:53:29;;;;;;;16.90;9.35;;;;;;;;;;10482851;28;20326;-77
2023/11/12 22:58:29;;;;;;;15.53;9.73;;;;;;;;;;10485756;28;20047;-77
2023/11/12 23:03:31;;;;;;;15.85;9.07;;;;;;;;;;10483204;28;20020;-78
2023/11/12 23:08:31;;;;;;;24.08;11.50;;;;;;;;;;10493683;28;20028;-77
2023/11/12 23:13:32;;;;;;;24.73;10.77;;;;;;;;;;10473724;28;20028;-77
2023/11/12 23:18:32;;;;;;;21.67;11.52;;;;;;;;;;10488444;28;20298;-77
2023/11/12 23:23:33;;;;;;;20.87;11.50;;;;;;;;;;10456184;28;20030;-77
2023/11/12 23:28:34;;;;;;;17.45;11.65;;;;;;;;;;10472180;28;20506;-78
2023/11/12 23:33:35;;;;;;;23.23;12.18;;;;;;;;;;10477860;28;20036;-79
2023/11/12 23:38:35;;;;;;;20.33;11.55;;;;;;;;;;10478462;28;20250;-78
2023/11/12 23:43:36;;;;;;;18.40;11.45;;;;;;;;;;10476991;28;20040;-77
2023/11/12 23:48:36;;;;;;;19.13;11.30;;;;;;;;;;10485029;28;20055;-78
2023/11/12 23:53:36;;;;;;;22.60;11.93;;;;;;;;;;10473703;28;20333;-78
2023/11/12 23:58:36;;;;;;;21.85;11.70;;;;;;;;;;10475470;28;20493;-79
